Time;durP1;ratioP1;P1;durP2;ratioP2;P2;SDS_P1;SDS_P2;PMS_P1;PMS_P2;Temp;Humidity;BMP_temperature;BMP_pressure;BME280_temperature;BME280_humidity;BME280_pressure;Samples;Min_cycle;Max_cycle;Signal;HPM_P1;HPM_P2
2023/06/07 00:00:38;;;;;;;17.67;10.63;;;;;;;;;;5092723;28;20085;-63
2023/06/07 00:03:09;;;;;;;13.93;8.55;;;;;;;;;;5096296;28;20289;-63
2023/06/07 00:05:36;;;;;;;17.33;9.88;;;;;;;;;;5094061;28;20055;-63
2023/06/07 00:08:02;;;;;;;18.23;8.95;;;;;;;;;;5097366;28;20027;-63
2023/06/07 00:10:27;;;;;;;16.27;9.77;;;;;;;;;;5094206;28;20483;-63
2023/06/07 00:12:52;;;;;;;16.52;8.98;;;;;;;;;;5100901;28;20023;-63
2023/06/07 00:15:17;;;;;;;18.70;9.30;;;;;;;;;;5094133;28;20072;-63
2023/06/07 00:17:44;;;;;;;21.53;10.63;;;;;;;;;;5095328;28;20269;-63
2023/06/07 00:20:12;;;;;;;17.13;9.35;;;;;;;;;;5099352;28;20372;-63
2023/06/07 00:22:38;;;;;;;22.95;10.15;;;;;;;;;;5096572;28;20023;-64
2023/06/07 00:25:04;;;;;;;24.63;9.48;;;;;;;;;;5098454;28;20027;-64
2023/06/07 00:27:30;;;;;;;13.02;8.73;;;;;;;;;;5091686;28;20043;-64
2023/06/07 00:29:55;;;;;;;16.80;9.13;;;;;;;;;;5103472;28;20108;-63
2023/06/07 00:32:23;;;;;;;15.17;10.80;;;;;;;;;;5104509;28;20028;-64
2023/06/07 00:34:48;;;;;;;18.33;9.38;;;;;;;;;;5103830;28;20289;-63
2023/06/07 00:37:14;;;;;;;13.90;9.03;;;;;;;;;;5107655;28;20359;-63
2023/06/07 00:39:40;;;;;;;18.50;10.07;;;;;;;;;;5107154;28;20265;-64
2023/06/07 00:42:06;;;;;;;18.40;9.77;;;;;;;;;;5091762;28;20895;-64
2023/06/07 00:44:31;;;;;;;20.30;9.32;;;;;;;;;;5091699;28;20115;-64
2023/06/07 00:46:57;;;;;;;17.45;9.40;;;;;;;;;;5097917;28;20024;-64
2023/06/07 00:49:22;;;;;;;12.88;8.68;;;;;;;;;;5099060;28;20030;-64
2023/06/07 00:51:48;;;;;;;18.23;10.30;;;;;;;;;;5095849;28;20028;-64
2023/06/07 00:54:17;;;;;;;15.15;9.10;;;;;;;;;;5092104;28;20028;-64
2023/06/07 00:56:43;;;;;;;15.98;8.43;;;;;;;;;;5096211;28;20496;-64
2023/06/07 00:59:08;;;;;;;13.18;8.70;;;;;;;;;;5095258;28;20476;-64
2023/06/07 01:01:34;;;;;;;15.15;9.82;;;;;;;;;;5105965;28;20114;-64
2023/06/07 01:04:00;;;;;;;25.48;9.07;;;;;;;;;;5093416;28;20093;-64
2023/06/07 01:06:25;;;;;;;14.55;8.90;;;;;;;;;;5096215;28;20027;-64
2023/06/07 01:08:53;;;;;;;16.50;9.20;;;;;;;;;;5093725;28;20698;-64
2023/06/07 01:11:20;;;;;;;13.57;9.05;;;;;;;;;;5096934;28;20073;-63
2023/06/07 01:13:46;;;;;;;14.45;9.38;;;;;;;;;;5093580;28;20039;-64
2023/06/07 01:16:12;;;;;;;22.33;8.57;;;;;;;;;;5098945;28;20032;-64
2023/06/07 01:18:38;;;;;;;15.85;7.88;;;;;;;;;;5097589;28;20073;-64
2023/06/07 01:21:05;;;;;;;12.98;8.05;;;;;;;;;;5099872;28;20024;-64
2023/06/07 01:23:33;;;;;;;15.65;7.78;;;;;;;;;;5093681;28;20024;-64
2023/06/07 01:25:59;;;;;;;18.60;9.20;;;;;;;;;;5096492;28;20023;-64
2023/06/07 01:28:25;;;;;;;12.38;8.00;;;;;;;;;;5107557;28;20035;-64
2023/06/07 01:30:52;;;;;;;16.45;8.60;;;;;;;;;;5106900;28;20390;-64
2023/06/07 01:33:17;;;;;;;13.00;7.85;;;;;;;;;;5106080;28;20127;-64
2023/06/07 01:35:44;;;;;;;10.77;7.68;;;;;;;;;;5106127;28;20058;-63
2023/06/07 01:38:10;;;;;;;14.50;8.68;;;;;;;;;;5107246;28;20023;-64
2023/06/07 01:40:37;;;;;;;13.88;8.63;;;;;;;;;;5107819;28;20028;-64
2023/06/07 01:43:03;;;;;;;16.23;8.20;;;;;;;;;;5091736;28;20025;-65
2023/06/07 01:45:29;;;;;;;13.75;8.00;;;;;;;;;;5094824;28;20028;-64
2023/06/07 01:47:54;;;;;;;21.08;8.90;;;;;;;;;;5090219;28;20103;-63
2023/06/07 01:50:20;;;;;;;19.40;7.75;;;;;;;;;;5093079;28;20033;-66
2023/06/07 01:52:46;;;;;;;17.17;8.25;;;;;;;;;;5090737;28;20398;-64
2023/06/07 01:55:11;;;;;;;21.00;8.00;;;;;;;;;;5092864;28;20052;-64
2023/06/07 01:57:59;;;;;;;14.13;8.43;;;;;;;;;;5108059;28;20304;-64
2023/06/07 02:00:24;;;;;;;12.95;7.88;;;;;;;;;;5085852;28;20036;-64
2023/06/07 02:02:53;;;;;;;12.40;8.23;;;;;;;;;;5089684;28;20074;-64
2023/06/07 02:05:23;;;;;;;20.33;9.00;;;;;;;;;;5093597;28;20278;-64
2023/06/07 02:07:50;;;;;;;15.60;8.32;;;;;;;;;;5090240;28;20036;-64
2023/06/07 02:10:16;;;;;;;15.68;9.15;;;;;;;;;;5098325;28;20436;-63
2023/06/07 02:12:42;;;;;;;17.70;8.88;;;;;;;;;;5102364;28;20535;-64
2023/06/07 02:15:08;;;;;;;13.35;8.07;;;;;;;;;;5098984;28;20138;-64
2023/06/07 02:17:34;;;;;;;15.68;7.93;;;;;;;;;;5108811;28;20023;-63
2023/06/07 02:20:00;;;;;;;21.92;8.65;;;;;;;;;;5108443;28;20027;-64
2023/06/07 02:22:25;;;;;;;14.93;8.57;;;;;;;;;;5108678;28;20522;-64
2023/06/07 02:24:51;;;;;;;12.95;7.63;;;;;;;;;;5104657;28;20036;-64
2023/06/07 02:27:16;;;;;;;19.70;7.75;;;;;;;;;;5096036;28;20035;-64
2023/06/07 02:29:41;;;;;;;12.87;8.70;;;;;;;;;;5099904;28;20454;-64
2023/06/07 02:32:07;;;;;;;13.82;8.00;;;;;;;;;;5101534;28;20652;-64
2023/06/07 02:34:32;;;;;;;13.38;7.82;;;;;;;;;;5111056;28;20041;-64
2023/06/07 02:37:00;;;;;;;24.40;8.30;;;;;;;;;;5100756;28;20027;-64
2023/06/07 02:39:25;;;;;;;20.23;8.63;;;;;;;;;;5097759;28;20499;-64
2023/06/07 02:41:51;;;;;;;17.80;9.10;;;;;;;;;;5111278;28;20019;-63
2023/06/07 02:44:16;;;;;;;14.17;9.07;;;;;;;;;;5105906;28;20355;-63
2023/06/07 02:46:41;;;;;;;18.07;8.17;;;;;;;;;;5105116;28;20636;-64
2023/06/07 02:49:06;;;;;;;15.95;8.60;;;;;;;;;;5092758;28;20274;-64
2023/06/07 02:51:32;;;;;;;12.47;8.33;;;;;;;;;;5101182;28;20024;-63
2023/06/07 02:53:57;;;;;;;21.37;7.60;;;;;;;;;;5098673;28;20309;-63
2023/06/07 02:56:28;;;;;;;17.00;8.30;;;;;;;;;;5092392;28;20388;-63
2023/06/07 02:58:54;;;;;;;13.18;8.15;;;;;;;;;;5097695;28;20067;-64
2023/06/07 03:01:21;;;;;;;11.85;8.60;;;;;;;;;;5096457;28;20059;-63
2023/06/07 03:03:47;;;;;;;18.27;8.95;;;;;;;;;;5098611;28;20386;-62
2023/06/07 03:06:14;;;;;;;15.85;8.88;;;;;;;;;;5111551;28;20035;-63
2023/06/07 03:08:40;;;;;;;13.85;8.82;;;;;;;;;;5093006;28;20028;-62
2023/06/07 03:11:05;;;;;;;13.57;8.13;;;;;;;;;;5102232;28;20035;-63
2023/06/07 03:13:30;;;;;;;16.95;8.85;;;;;;;;;;5093501;28;20298;-63
2023/06/07 03:15:55;;;;;;;13.55;9.25;;;;;;;;;;5100249;28;20481;-63
2023/06/07 03:18:21;;;;;;;13.63;9.25;;;;;;;;;;5096886;28;20077;-63
2023/06/07 03:20:47;;;;;;;20.15;9.70;;;;;;;;;;5091965;28;20127;-63
2023/06/07 03:23:12;;;;;;;11.27;8.55;;;;;;;;;;5094995;28;20024;-63
2023/06/07 03:25:38;;;;;;;17.70;9.07;;;;;;;;;;5092065;28;20036;-63
2023/06/07 03:28:03;;;;;;;13.95;9.27;;;;;;;;;;5098214;28;20043;-63
2023/06/07 03:30:28;;;;;;;12.95;9.00;;;;;;;;;;5105167;28;20030;-63
2023/06/07 03:32:54;;;;;;;16.48;8.77;;;;;;;;;;5098652;28;20028;-63
2023/06/07 03:35:19;;;;;;;19.23;9.60;;;;;;;;;;5092904;28;20027;-63
2023/06/07 03:37:45;;;;;;;15.38;9.35;;;;;;;;;;5101684;28;20072;-63
2023/06/07 03:40:10;;;;;;;18.15;9.27;;;;;;;;;;5104912;28;20070;-63
2023/06/07 03:42:35;;;;;;;22.67;10.07;;;;;;;;;;5103805;28;20023;-63
2023/06/07 03:45:01;;;;;;;15.65;9.52;;;;;;;;;;5103228;28;20581;-63
2023/06/07 03:47:26;;;;;;;17.23;9.75;;;;;;;;;;5098372;28;20043;-63
2023/06/07 03:49:51;;;;;;;14.93;9.75;;;;;;;;;;5099630;28;20026;-63
2023/06/07 03:52:16;;;;;;;11.10;8.90;;;;;;;;;;5096158;28;20462;-63
2023/06/07 03:54:42;;;;;;;13.17;9.40;;;;;;;;;;5102757;28;20039;-63
2023/06/07 03:57:07;;;;;;;16.08;9.30;;;;;;;;;;5096980;28;20302;-63
2023/06/07 03:59:32;;;;;;;18.23;9.75;;;;;;;;;;5105872;28;20030;-63
2023/06/07 04:02:00;;;;;;;16.67;9.40;;;;;;;;;;5101094;28;20030;-63
2023/06/07 04:04:27;;;;;;;16.65;10.35;;;;;;;;;;5099901;28;20652;-63
2023/06/07 04:06:53;;;;;;;15.98;9.52;;;;;;;;;;5098190;28;20024;-63
2023/06/07 04:09:19;;;;;;;16.00;9.95;;;;;;;;;;5094364;28;20036;-63
2023/06/07 04:11:45;;;;;;;21.90;10.43;;;;;;;;;;5094435;28;20154;-63
2023/06/07 04:14:10;;;;;;;18.70;11.00;;;;;;;;;;5096438;28;20122;-63
2023/06/07 04:16:35;;;;;;;15.10;9.85;;;;;;;;;;5105079;28;20046;-63
2023/06/07 04:19:00;;;;;;;16.23;9.43;;;;;;;;;;5103354;28;20062;-63
2023/06/07 04:21:26;;;;;;;16.60;10.38;;;;;;;;;;5097518;28;20020;-63
2023/06/07 04:23:51;;;;;;;14.50;10.77;;;;;;;;;;5108809;28;20023;-64
2023/06/07 04:26:18;;;;;;;18.38;11.93;;;;;;;;;;5110742;28;20273;-63
2023/06/07 04:28:45;;;;;;;14.00;10.10;;;;;;;;;;5104115;28;20055;-63
2023/06/07 04:31:12;;;;;;;15.27;10.20;;;;;;;;;;5102300;28;20442;-63
2023/06/07 04:33:38;;;;;;;18.33;10.75;;;;;;;;;;5107749;28;20054;-63
2023/06/07 04:36:03;;;;;;;18.58;10.57;;;;;;;;;;5102503;28;20103;-63
2023/06/07 04:38:29;;;;;;;18.95;11.73;;;;;;;;;;5105097;28;20035;-63
2023/06/07 04:40:55;;;;;;;19.55;11.77;;;;;;;;;;5098007;28;20015;-63
2023/06/07 04:43:20;;;;;;;14.32;10.43;;;;;;;;;;5111115;28;20042;-63
2023/06/07 04:45:55;;;;;;;19.85;10.80;;;;;;;;;;5110066;28;20043;-63
2023/06/07 04:48:22;;;;;;;17.35;11.52;;;;;;;;;;5097971;28;20071;-64
2023/06/07 04:50:49;;;;;;;18.50;11.38;;;;;;;;;;5109584;28;20386;-63
2023/06/07 04:53:19;;;;;;;19.85;11.80;;;;;;;;;;5109689;28;20463;-63
2023/06/07 04:55:45;;;;;;;15.27;11.70;;;;;;;;;;5110358;28;20034;-62
2023/06/07 04:58:11;;;;;;;19.75;12.75;;;;;;;;;;5109448;28;20044;-63
2023/06/07 05:00:38;;;;;;;16.70;12.10;;;;;;;;;;5109903;28;20027;-63
2023/06/07 05:03:08;;;;;;;20.10;12.32;;;;;;;;;;5099610;28;20031;-63
2023/06/07 05:05:33;;;;;;;21.88;12.68;;;;;;;;;;5104971;28;20489;-63
2023/06/07 05:07:58;;;;;;;21.08;11.73;;;;;;;;;;5100350;28;20066;-63
2023/06/07 05:10:24;;;;;;;20.52;11.65;;;;;;;;;;5110257;28;20466;-63
2023/06/07 05:12:49;;;;;;;21.20;12.07;;;;;;;;;;5102901;28;20028;-63
2023/06/07 05:15:15;;;;;;;17.88;11.43;;;;;;;;;;5093993;28;20012;-63
2023/06/07 05:17:40;;;;;;;18.90;12.80;;;;;;;;;;5103346;28;20031;-63
2023/06/07 05:20:10;;;;;;;21.75;12.10;;;;;;;;;;5099834;28;20019;-64
2023/06/07 05:22:35;;;;;;;17.90;12.75;;;;;;;;;;5092320;28;20107;-63
2023/06/07 05:25:00;;;;;;;16.13;12.27;;;;;;;;;;5098890;28;20486;-63
2023/06/07 05:27:26;;;;;;;19.08;10.85;;;;;;;;;;5099767;28;20031;-63
2023/06/07 05:29:51;;;;;;;24.38;13.43;;;;;;;;;;5094821;28;20036;-65
2023/06/07 05:32:16;;;;;;;18.13;12.00;;;;;;;;;;5106574;28;20084;-63
2023/06/07 05:34:45;;;;;;;19.35;11.48;;;;;;;;;;5095517;28;20358;-64
2023/06/07 05:37:10;;;;;;;18.48;11.73;;;;;;;;;;5087373;28;20036;-63
2023/06/07 05:39:35;;;;;;;15.70;11.57;;;;;;;;;;5103206;28;20030;-63
2023/06/07 05:42:01;;;;;;;14.93;11.88;;;;;;;;;;5095021;28;20036;-63
2023/06/07 05:44:26;;;;;;;17.75;11.40;;;;;;;;;;5099752;28;20020;-63
2023/06/07 05:46:51;;;;;;;16.63;12.85;;;;;;;;;;5096932;28;20043;-63
2023/06/07 05:49:17;;;;;;;19.02;11.32;;;;;;;;;;5101634;28;20026;-62
2023/06/07 05:51:42;;;;;;;18.37;11.47;;;;;;;;;;5110589;28;20023;-63
2023/06/07 05:54:08;;;;;;;25.92;11.40;;;;;;;;;;5106202;28;20570;-62
2023/06/07 05:56:33;;;;;;;18.85;11.65;;;;;;;;;;5106506;28;20063;-63
2023/06/07 05:58:58;;;;;;;18.90;12.67;;;;;;;;;;5111268;28;20030;-63
2023/06/07 06:01:23;;;;;;;19.90;12.10;;;;;;;;;;5103443;28;20286;-64
2023/06/07 06:03:49;;;;;;;18.70;11.88;;;;;;;;;;5093537;28;20475;-64
2023/06/07 06:06:17;;;;;;;29.52;12.63;;;;;;;;;;5098593;28;20107;-63
2023/06/07 06:08:43;;;;;;;15.90;11.40;;;;;;;;;;5097351;28;20036;-64
2023/06/07 06:11:10;;;;;;;26.98;11.95;;;;;;;;;;5102301;28;20626;-64
2023/06/07 06:13:37;;;;;;;17.25;12.55;;;;;;;;;;5095452;28;20090;-63
2023/06/07 06:16:03;;;;;;;21.63;12.73;;;;;;;;;;5096573;28;20103;-64
2023/06/07 06:18:28;;;;;;;22.52;12.20;;;;;;;;;;5104590;28;20493;-64
2023/06/07 06:20:53;;;;;;;19.88;12.73;;;;;;;;;;5103150;28;20423;-64
2023/06/07 06:23:19;;;;;;;21.63;12.52;;;;;;;;;;5097905;28;20445;-63
2023/06/07 06:25:44;;;;;;;16.90;12.48;;;;;;;;;;5102745;28;20034;-64
2023/06/07 06:28:10;;;;;;;17.70;13.00;;;;;;;;;;5105833;28;20023;-64
2023/06/07 06:30:35;;;;;;;26.08;14.10;;;;;;;;;;5075058;28;20055;-64
2023/06/07 06:33:01;;;;;;;18.02;12.23;;;;;;;;;;5103227;28;20036;-64
2023/06/07 06:35:28;;;;;;;21.90;13.43;;;;;;;;;;5076388;28;20494;-64
2023/06/07 06:37:53;;;;;;;20.92;13.45;;;;;;;;;;5085205;28;20031;-64
2023/06/07 06:40:20;;;;;;;21.55;13.30;;;;;;;;;;5088200;28;20028;-64
2023/06/07 06:42:45;;;;;;;18.15;12.05;;;;;;;;;;5096588;28;20027;-64
2023/06/07 06:45:11;;;;;;;16.67;12.75;;;;;;;;;;5097188;28;20032;-64
2023/06/07 06:47:41;;;;;;;21.00;12.50;;;;;;;;;;5101254;28;20024;-64
2023/06/07 06:50:06;;;;;;;26.63;12.73;;;;;;;;;;5101866;28;20471;-64
2023/06/07 06:52:32;;;;;;;20.05;13.43;;;;;;;;;;5098999;28;20074;-64
2023/06/07 06:54:57;;;;;;;18.57;12.37;;;;;;;;;;5099505;28;20406;-64
2023/06/07 06:57:22;;;;;;;18.67;12.77;;;;;;;;;;5103547;28;20296;-64
2023/06/07 06:59:47;;;;;;;31.60;13.88;;;;;;;;;;5084451;28;20617;-64
2023/06/07 07:02:13;;;;;;;21.20;12.38;;;;;;;;;;5094078;28;20455;-64
2023/06/07 07:04:38;;;;;;;18.42;13.75;;;;;;;;;;5100440;28;20039;-64
2023/06/07 07:07:03;;;;;;;24.50;14.68;;;;;;;;;;5080385;28;20051;-64
2023/06/07 07:09:30;;;;;;;18.17;13.25;;;;;;;;;;5102184;28;20085;-64
2023/06/07 07:11:55;;;;;;;23.40;13.30;;;;;;;;;;5096655;28;20019;-64
2023/06/07 07:14:20;;;;;;;19.27;12.68;;;;;;;;;;5103020;28;20028;-64
2023/06/07 07:16:46;;;;;;;21.40;12.93;;;;;;;;;;5103283;28;20024;-64
2023/06/07 07:19:11;;;;;;;16.67;12.52;;;;;;;;;;5103540;28;20812;-64
2023/06/07 07:21:37;;;;;;;22.20;12.53;;;;;;;;;;5101710;28;20066;-64
2023/06/07 07:24:02;;;;;;;22.45;12.18;;;;;;;;;;5092381;28;20262;-64
2023/06/07 07:26:28;;;;;;;20.15;12.68;;;;;;;;;;5092906;28;20043;-64
2023/06/07 07:28:53;;;;;;;17.70;12.52;;;;;;;;;;5093751;28;20028;-64
2023/06/07 07:31:18;;;;;;;22.30;14.20;;;;;;;;;;5101296;28;20397;-64
2023/06/07 07:33:44;;;;;;;17.52;12.10;;;;;;;;;;5095331;28;20302;-64
2023/06/07 07:36:09;;;;;;;17.95;13.20;;;;;;;;;;5098295;28;20024;-64
2023/06/07 07:38:37;;;;;;;19.92;13.32;;;;;;;;;;5104551;28;20065;-64
2023/06/07 07:41:05;;;;;;;16.58;12.38;;;;;;;;;;5100433;28;20038;-64
2023/06/07 07:43:31;;;;;;;16.10;13.18;;;;;;;;;;5103802;28;20432;-63
2023/06/07 07:45:56;;;;;;;16.38;11.10;;;;;;;;;;5093886;28;20025;-64
2023/06/07 07:48:21;;;;;;;18.20;12.20;;;;;;;;;;5098415;28;20020;-65
2023/06/07 07:50:46;;;;;;;21.57;13.87;;;;;;;;;;5109777;28;20022;-64
2023/06/07 07:53:12;;;;;;;14.75;12.10;;;;;;;;;;5091194;28;20680;-64
2023/06/07 07:55:37;;;;;;;13.93;11.80;;;;;;;;;;5107890;28;20484;-65
2023/06/07 07:58:02;;;;;;;23.03;12.77;;;;;;;;;;5104710;28;20631;-64
2023/06/07 08:00:27;;;;;;;18.50;12.70;;;;;;;;;;5095344;28;20328;-64
2023/06/07 08:02:53;;;;;;;17.45;11.75;;;;;;;;;;5094264;28;20141;-65
2023/06/07 08:05:18;;;;;;;21.63;13.65;;;;;;;;;;5108122;28;20066;-64
2023/06/07 08:07:43;;;;;;;18.13;12.07;;;;;;;;;;5102871;28;20089;-64
2023/06/07 08:10:09;;;;;;;18.97;13.40;;;;;;;;;;5102768;28;20277;-64
2023/06/07 08:12:34;;;;;;;16.98;13.40;;;;;;;;;;5098579;28;20294;-64
2023/06/07 08:15:00;;;;;;;24.95;13.05;;;;;;;;;;5096250;28;20012;-64
2023/06/07 08:17:25;;;;;;;29.63;13.32;;;;;;;;;;5095329;28;20031;-64
2023/06/07 08:19:50;;;;;;;17.35;11.68;;;;;;;;;;5109869;28;20023;-64
2023/06/07 08:22:16;;;;;;;15.50;12.93;;;;;;;;;;5105355;28;20020;-63
2023/06/07 08:24:41;;;;;;;20.40;12.57;;;;;;;;;;5102986;28;20309;-64
2023/06/07 08:27:07;;;;;;;18.90;12.88;;;;;;;;;;5097012;28;20027;-64
2023/06/07 08:29:33;;;;;;;20.08;12.95;;;;;;;;;;5102111;28;20027;-64
2023/06/07 08:31:58;;;;;;;21.70;12.57;;;;;;;;;;5102593;28;20030;-64
2023/06/07 08:34:27;;;;;;;15.90;11.43;;;;;;;;;;5103206;28;20277;-64
2023/06/07 08:36:53;;;;;;;18.05;11.48;;;;;;;;;;5105297;28;20838;-64
2023/06/07 08:39:18;;;;;;;26.85;13.63;;;;;;;;;;5104755;28;20088;-63
2023/06/07 08:41:43;;;;;;;18.23;12.13;;;;;;;;;;5095415;28;20463;-64
2023/06/07 08:44:09;;;;;;;19.65;12.88;;;;;;;;;;5109645;28;20016;-63
2023/06/07 08:46:35;;;;;;;17.87;11.97;;;;;;;;;;5097669;28;20134;-63
2023/06/07 08:49:02;;;;;;;24.40;12.05;;;;;;;;;;5098624;28;20257;-64
2023/06/07 08:51:27;;;;;;;29.05;13.55;;;;;;;;;;5096582;28;20031;-63
2023/06/07 08:53:58;;;;;;;16.67;12.52;;;;;;;;;;5101081;28;20092;-64
2023/06/07 08:56:24;;;;;;;23.20;12.02;;;;;;;;;;5104402;28;20114;-64
2023/06/07 08:58:50;;;;;;;21.20;11.63;;;;;;;;;;5104894;28;20418;-64
2023/06/07 09:01:17;;;;;;;17.17;12.90;;;;;;;;;;5085349;28;20066;-64
2023/06/07 09:03:42;;;;;;;24.70;12.60;;;;;;;;;;5105972;28;20804;-63
2023/06/07 09:06:08;;;;;;;20.75;13.10;;;;;;;;;;5092066;28;20020;-64
2023/06/07 09:08:33;;;;;;;19.27;12.98;;;;;;;;;;5103834;28;20032;-64
2023/06/07 09:10:58;;;;;;;19.13;13.23;;;;;;;;;;5109919;28;20079;-64
2023/06/07 09:13:24;;;;;;;17.53;12.60;;;;;;;;;;5096565;28;20157;-64
2023/06/07 09:15:52;;;;;;;17.42;12.85;;;;;;;;;;5075169;28;20305;-63
2023/06/07 09:18:17;;;;;;;25.88;13.27;;;;;;;;;;5097324;28;20427;-64
2023/06/07 09:20:42;;;;;;;18.20;13.40;;;;;;;;;;5096627;28;20059;-63
2023/06/07 09:23:11;;;;;;;23.40;13.47;;;;;;;;;;5104641;28;20398;-64
2023/06/07 09:25:37;;;;;;;21.52;12.60;;;;;;;;;;5107618;28;20740;-64
2023/06/07 09:28:03;;;;;;;17.08;13.75;;;;;;;;;;5096361;28;20028;-64
2023/06/07 09:30:28;;;;;;;18.85;12.18;;;;;;;;;;5102090;28;20023;-63
2023/06/07 09:32:54;;;;;;;31.30;13.32;;;;;;;;;;5098354;28;20458;-64
2023/06/07 09:35:19;;;;;;;33.72;13.75;;;;;;;;;;5096227;28;20076;-64
2023/06/07 09:37:51;;;;;;;21.13;13.13;;;;;;;;;;5099713;28;20026;-63
2023/06/07 09:40:16;;;;;;;36.33;13.85;;;;;;;;;;5090852;28;20024;-64
2023/06/07 09:42:42;;;;;;;21.83;13.75;;;;;;;;;;5096021;28;20081;-63
2023/06/07 09:45:08;;;;;;;18.50;13.75;;;;;;;;;;5097270;28;20028;-64
2023/06/07 09:47:33;;;;;;;27.15;14.07;;;;;;;;;;5099005;28;20023;-64
2023/06/07 09:50:05;;;;;;;18.80;12.97;;;;;;;;;;5106100;28;20120;-62
2023/06/07 09:52:31;;;;;;;19.65;13.93;;;;;;;;;;5105971;28;20299;-64
2023/06/07 09:54:56;;;;;;;22.05;13.48;;;;;;;;;;5100623;28;20381;-64
2023/06/07 09:57:24;;;;;;;19.30;14.35;;;;;;;;;;5100761;28;20027;-63
2023/06/07 10:00:00;;;;;;;24.88;15.15;;;;;;;;;;5104032;28;20567;-62
2023/06/07 10:02:29;;;;;;;21.08;13.85;;;;;;;;;;5106943;28;20031;-64
2023/06/07 10:04:56;;;;;;;19.75;12.95;;;;;;;;;;5104803;28;20861;-64
2023/06/07 10:07:23;;;;;;;27.02;14.63;;;;;;;;;;5100541;28;20548;-64
2023/06/07 10:09:51;;;;;;;18.02;12.45;;;;;;;;;;5105033;28;20024;-64
2023/06/07 10:12:18;;;;;;;21.38;12.77;;;;;;;;;;5103836;28;20023;-64
2023/06/07 10:14:45;;;;;;;23.73;13.43;;;;;;;;;;5100111;28;20028;-64
2023/06/07 10:17:13;;;;;;;21.00;13.32;;;;;;;;;;5107787;28;20035;-64
2023/06/07 10:19:46;;;;;;;32.38;13.85;;;;;;;;;;5087173;28;20031;-64
2023/06/07 10:22:14;;;;;;;;;;;;;;;;;;5088331;28;20176;-64
2023/06/07 10:24:43;;;;;;;14.32;11.38;;;;;;;;;;5105303;28;20262;-64
2023/06/07 10:27:12;;;;;;;19.73;12.18;;;;;;;;;;5104723;28;20046;-64
2023/06/07 10:29:40;;;;;;;18.52;11.85;;;;;;;;;;5095918;28;20494;-64
2023/06/07 10:32:07;;;;;;;16.45;11.80;;;;;;;;;;5105682;28;20042;-62
2023/06/07 10:34:32;;;;;;;18.52;12.95;;;;;;;;;;5109584;28;20024;-63
2023/06/07 10:36:58;;;;;;;18.95;11.90;;;;;;;;;;5105099;28;20020;-64
2023/06/07 10:39:23;;;;;;;30.30;13.20;;;;;;;;;;5109536;28;20106;-64
2023/06/07 10:41:49;;;;;;;17.77;11.20;;;;;;;;;;5108111;28;20032;-64
2023/06/07 10:44:15;;;;;;;17.65;11.65;;;;;;;;;;5103805;28;20020;-64
2023/06/07 10:46:40;;;;;;;20.08;13.05;;;;;;;;;;5098580;28;20106;-63
2023/06/07 10:49:11;;;;;;;27.70;13.53;;;;;;;;;;5103993;28;20072;-64
2023/06/07 10:51:44;;;;;;;20.65;13.02;;;;;;;;;;5110477;28;20281;-64
2023/06/07 10:54:10;;;;;;;21.83;12.55;;;;;;;;;;5109984;28;20503;-64
2023/06/07 10:56:36;;;;;;;16.17;11.77;;;;;;;;;;5104917;28;20074;-64
2023/06/07 10:59:13;;;;;;;19.00;12.38;;;;;;;;;;5100891;28;20027;-63
2023/06/07 11:01:38;;;;;;;26.60;12.80;;;;;;;;;;5111195;28;20378;-63
2023/06/07 11:04:04;;;;;;;24.83;12.43;;;;;;;;;;5104439;28;20024;-64
2023/06/07 11:06:32;;;;;;;17.38;12.30;;;;;;;;;;5101522;28;20019;-64
2023/06/07 11:09:17;;;;;;;26.65;12.73;;;;;;;;;;5078262;28;20379;-62
2023/06/07 11:11:42;;;;;;;;;;;;;;;;;;5104958;28;20462;-63
2023/06/07 11:14:08;;;;;;;22.13;12.68;;;;;;;;;;5097475;28;20373;-63
2023/06/07 11:16:33;;;;;;;21.80;14.27;;;;;;;;;;5104561;28;20543;-63
2023/06/07 11:19:08;;;;;;;20.85;14.55;;;;;;;;;;5100405;28;20493;-62
2023/06/07 11:21:52;;;;;;;22.40;14.00;;;;;;;;;;5103071;28;20051;-62
2023/06/07 11:24:18;;;;;;;18.42;13.80;;;;;;;;;;5098957;28;20024;-63
2023/06/07 11:26:45;;;;;;;19.92;15.43;;;;;;;;;;5097808;28;20085;-62
2023/06/07 11:29:11;;;;;;;20.98;15.70;;;;;;;;;;5105274;28;20456;-63
2023/06/07 11:31:36;;;;;;;19.23;15.65;;;;;;;;;;5103936;28;20031;-64
2023/06/07 11:34:02;;;;;;;22.30;16.23;;;;;;;;;;5105421;28;20036;-64
2023/06/07 11:36:31;;;;;;;23.52;17.42;;;;;;;;;;5099122;28;20044;-64
2023/06/07 11:38:59;;;;;;;29.17;17.27;;;;;;;;;;5097177;28;20103;-63
2023/06/07 11:41:24;;;;;;;19.42;16.35;;;;;;;;;;5105646;28;20466;-64
2023/06/07 11:43:49;;;;;;;28.70;17.63;;;;;;;;;;5104662;28;20028;-64
2023/06/07 11:46:15;;;;;;;28.42;17.40;;;;;;;;;;5105153;28;20023;-63
2023/06/07 11:48:41;;;;;;;23.20;17.05;;;;;;;;;;5099524;28;20036;-63
2023/06/07 11:51:06;;;;;;;21.80;17.37;;;;;;;;;;5098787;28;20051;-64
2023/06/07 11:53:32;;;;;;;21.63;16.53;;;;;;;;;;5102261;28;20297;-63
2023/06/07 11:55:58;;;;;;;23.45;16.42;;;;;;;;;;5097242;28;20347;-63
2023/06/07 11:58:23;;;;;;;26.17;17.65;;;;;;;;;;5095396;28;20024;-64
2023/06/07 12:00:49;;;;;;;25.05;17.35;;;;;;;;;;5094893;28;20032;-63
2023/06/07 12:03:16;;;;;;;24.95;17.92;;;;;;;;;;5095576;28;20028;-63
2023/06/07 12:05:41;;;;;;;25.63;17.20;;;;;;;;;;5094467;28;20054;-63
2023/06/07 12:08:10;;;;;;;27.85;19.88;;;;;;;;;;5103657;28;20019;-63
2023/06/07 12:10:39;;;;;;;32.60;18.77;;;;;;;;;;5105971;28;20494;-63
2023/06/07 12:13:13;;;;;;;21.75;17.85;;;;;;;;;;5107277;28;20092;-63
2023/06/07 12:16:07;;;;;;;23.50;18.67;;;;;;;;;;5091736;28;20081;-62
2023/06/07 12:18:35;;;;;;;21.65;16.83;;;;;;;;;;5086805;28;20122;-62
2023/06/07 12:21:03;;;;;;;22.42;16.00;;;;;;;;;;5104856;28;20076;-62
2023/06/07 12:23:28;;;;;;;20.55;17.20;;;;;;;;;;5105585;28;20073;-63
2023/06/07 12:26:10;;;;;;;22.77;17.02;;;;;;;;;;5111239;28;20031;-63
2023/06/07 12:28:36;;;;;;;25.20;17.52;;;;;;;;;;5107877;28;20516;-63
2023/06/07 12:31:02;;;;;;;21.25;17.77;;;;;;;;;;5101677;28;20031;-62
2023/06/07 12:33:28;;;;;;;28.98;18.13;;;;;;;;;;5103501;28;20036;-63
2023/06/07 12:35:55;;;;;;;36.15;17.45;;;;;;;;;;5095837;28;20417;-67
2023/06/07 12:38:21;;;;;;;24.33;18.27;;;;;;;;;;5095142;28;20374;-61
2023/06/07 12:40:46;;;;;;;21.95;17.10;;;;;;;;;;5111628;28;20102;-62
2023/06/07 12:43:12;;;;;;;25.58;19.35;;;;;;;;;;5111404;28;20042;-62
2023/06/07 12:45:37;;;;;;;23.67;16.00;;;;;;;;;;5097490;28;20084;-62
2023/06/07 12:48:02;;;;;;;27.38;18.25;;;;;;;;;;5092859;28;20599;-63
2023/06/07 12:50:28;;;;;;;20.67;18.35;;;;;;;;;;5092094;28;20024;-62
2023/06/07 12:52:53;;;;;;;22.57;17.77;;;;;;;;;;5098349;28;20500;-63
2023/06/07 12:55:18;;;;;;;26.33;18.60;;;;;;;;;;5096404;28;20312;-62
2023/06/07 12:57:44;;;;;;;23.65;16.92;;;;;;;;;;5090956;28;20031;-63
2023/06/07 13:00:09;;;;;;;26.58;17.55;;;;;;;;;;5088313;28;20020;-62
2023/06/07 13:02:35;;;;;;;25.88;18.50;;;;;;;;;;5094007;28;20486;-62
2023/06/07 13:05:01;;;;;;;23.15;17.90;;;;;;;;;;5093296;28;20112;-63
2023/06/07 13:07:27;;;;;;;24.58;18.38;;;;;;;;;;5102567;28;20051;-62
2023/06/07 13:09:52;;;;;;;25.23;16.65;;;;;;;;;;5107138;28;20058;-63
2023/06/07 13:12:17;;;;;;;24.88;18.88;;;;;;;;;;5102556;28;20466;-62
2023/06/07 13:14:43;;;;;;;21.63;16.88;;;;;;;;;;5093040;28;20043;-62
2023/06/07 13:17:09;;;;;;;24.17;16.40;;;;;;;;;;5098576;28;20479;-62
2023/06/07 13:19:35;;;;;;;20.48;15.48;;;;;;;;;;5098377;28;20035;-62
2023/06/07 13:22:00;;;;;;;27.55;16.35;;;;;;;;;;5106294;28;20020;-63
2023/06/07 13:24:25;;;;;;;21.42;15.57;;;;;;;;;;5101257;28;20028;-63
2023/06/07 13:26:51;;;;;;;22.13;17.13;;;;;;;;;;5089754;28;20115;-63
2023/06/07 13:29:16;;;;;;;24.23;16.20;;;;;;;;;;5090192;28;20297;-62
2023/06/07 13:31:41;;;;;;;18.55;15.25;;;;;;;;;;5103894;28;20448;-62
2023/06/07 13:34:06;;;;;;;19.55;16.05;;;;;;;;;;5091296;28;20031;-63
2023/06/07 13:36:32;;;;;;;20.65;15.07;;;;;;;;;;5093991;28;20144;-63
2023/06/07 13:38:57;;;;;;;19.58;16.00;;;;;;;;;;5092394;28;20108;-63
2023/06/07 13:41:22;;;;;;;22.65;15.02;;;;;;;;;;5110058;28;20377;-64
2023/06/07 13:43:47;;;;;;;19.00;13.80;;;;;;;;;;5102188;28;20035;-64
2023/06/07 13:46:13;;;;;;;20.07;14.83;;;;;;;;;;5106781;28;20037;-64
2023/06/07 13:48:41;;;;;;;15.60;13.45;;;;;;;;;;5095954;28;20696;-64
2023/06/07 13:51:08;;;;;;;19.30;13.07;;;;;;;;;;5104896;28;20015;-65
2023/06/07 13:53:36;;;;;;;19.52;13.20;;;;;;;;;;5106044;28;20044;-64
2023/06/07 13:56:02;;;;;;;23.23;14.48;;;;;;;;;;5103585;28;20461;-64
2023/06/07 13:58:32;;;;;;;16.83;12.05;;;;;;;;;;5107447;28;20120;-63
2023/06/07 14:00:58;;;;;;;30.40;11.77;;;;;;;;;;5109893;28;20122;-63
2023/06/07 14:03:24;;;;;;;12.90;10.70;;;;;;;;;;5108010;28;20110;-64
2023/06/07 14:05:50;;;;;;;16.42;10.98;;;;;;;;;;5098591;28;20127;-63
2023/06/07 14:08:15;;;;;;;28.80;12.93;;;;;;;;;;5103157;28;20027;-63
2023/06/07 14:10:40;;;;;;;16.40;12.95;;;;;;;;;;5100514;28;20027;-63
2023/06/07 14:13:06;;;;;;;20.23;12.68;;;;;;;;;;5097823;28;20108;-64
2023/06/07 14:15:32;;;;;;;19.00;12.73;;;;;;;;;;5095062;28;20355;-63